createdAt,value
2018-06-11T00:01:31.945Z,17.93
2018-06-11T00:04:00.286Z,16.87
2018-06-11T00:06:28.679Z,17.73
2018-06-11T00:08:57.263Z,14.90
2018-06-11T00:11:25.624Z,19.40
2018-06-11T00:13:53.974Z,16.50
2018-06-11T00:16:22.303Z,15.87
2018-06-11T00:18:50.621Z,17.67
2018-06-11T00:21:18.951Z,18.30
2018-06-11T00:23:47.307Z,17.27
2018-06-11T00:26:15.668Z,19.03
2018-06-11T00:28:43.989Z,18.80
2018-06-11T00:31:12.390Z,22.03
2018-06-11T00:33:40.764Z,19.20
2018-06-11T00:36:09.092Z,19.47
2018-06-11T00:38:37.427Z,19.60
2018-06-11T00:41:05.762Z,18.70
2018-06-11T00:43:34.112Z,20.57
2018-06-11T00:46:02.465Z,23.07
2018-06-11T00:48:30.853Z,19.00
2018-06-11T00:50:59.221Z,18.47
2018-06-11T00:53:27.663Z,22.63
2018-06-11T00:56:07.447Z,19.23
2018-06-11T00:58:35.849Z,18.13
2018-06-11T01:01:04.615Z,20.67
2018-06-11T01:03:32.987Z,20.27
2018-06-11T01:06:01.408Z,19.87
2018-06-11T01:08:29.772Z,17.93
2018-06-11T01:10:58.175Z,21.83
2018-06-11T01:13:26.513Z,17.83
2018-06-11T01:15:54.885Z,19.07
2018-06-11T01:18:23.287Z,19.93
2018-06-11T01:20:51.699Z,21.20
2018-06-11T01:23:20.044Z,20.77
2018-06-11T01:25:48.423Z,18.60
2018-06-11T01:28:16.741Z,18.53
2018-06-11T01:30:45.115Z,18.73
2018-06-11T01:33:13.517Z,20.30
2018-06-11T01:35:41.876Z,18.30
2018-06-11T01:38:10.306Z,21.00
2018-06-11T01:40:38.671Z,18.17
2018-06-11T01:43:07.015Z,20.53
2018-06-11T01:45:35.441Z,19.60
2018-06-11T01:48:03.868Z,21.43
2018-06-11T01:50:32.273Z,20.43
2018-06-11T01:53:00.664Z,19.63
2018-06-11T01:55:29.038Z,19.80
2018-06-11T01:57:57.390Z,23.43
2018-06-11T02:00:25.797Z,21.40
2018-06-11T02:02:54.239Z,18.33
2018-06-11T02:05:22.664Z,19.43
2018-06-11T02:07:51.045Z,19.70
2018-06-11T02:10:19.418Z,22.87
2018-06-11T02:12:47.807Z,20.87
2018-06-11T02:15:16.234Z,22.60
2018-06-11T02:17:44.663Z,20.73
2018-06-11T02:20:13.076Z,21.03
2018-06-11T02:22:41.451Z,20.70
2018-06-11T02:25:09.830Z,18.87
2018-06-11T02:27:38.170Z,21.93
2018-06-11T02:30:06.607Z,20.97
2018-06-11T02:32:35.061Z,23.20
2018-06-11T02:35:03.489Z,23.93
2018-06-11T02:37:31.941Z,22.67
2018-06-11T02:40:00.301Z,23.87
2018-06-11T02:42:28.653Z,22.83
2018-06-11T02:44:57.004Z,21.00
2018-06-11T02:47:25.396Z,21.93
2018-06-11T02:49:53.789Z,23.47
2018-06-11T02:52:22.169Z,21.63
2018-06-11T02:54:50.519Z,21.67
2018-06-11T02:57:19.002Z,19.87
2018-06-11T02:59:47.399Z,21.50
2018-06-11T03:02:15.859Z,20.83
2018-06-11T03:04:44.200Z,18.97
2018-06-11T03:07:12.586Z,23.83
2018-06-11T03:09:40.972Z,22.20
2018-06-11T03:12:09.341Z,23.17
2018-06-11T03:14:37.711Z,21.77
2018-06-11T03:17:06.183Z,19.20
2018-06-11T03:19:34.522Z,22.67
2018-06-11T03:22:02.878Z,23.17
2018-06-11T03:24:31.326Z,21.53
2018-06-11T03:26:59.682Z,22.70
2018-06-11T03:29:28.020Z,20.50
2018-06-11T03:31:56.500Z,20.83
2018-06-11T03:34:24.921Z,21.57
2018-06-11T03:36:53.395Z,21.40
2018-06-11T03:39:21.787Z,22.43
2018-06-11T03:41:50.165Z,21.63
2018-06-11T03:44:18.567Z,23.13
2018-06-11T03:46:46.936Z,21.93
2018-06-11T03:49:15.288Z,19.63
2018-06-11T03:51:43.599Z,23.53
2018-06-11T03:54:11.919Z,22.50
2018-06-11T03:56:40.385Z,23.20
2018-06-11T03:59:08.840Z,23.47
2018-06-11T04:01:37.239Z,24.07
2018-06-11T04:04:05.623Z,24.60
2018-06-11T04:06:33.973Z,21.43
2018-06-11T04:09:02.380Z,24.07
2018-06-11T04:11:30.752Z,21.40
2018-06-11T04:13:59.163Z,20.20
2018-06-11T04:16:27.572Z,22.40
2018-06-11T04:18:55.959Z,22.37
2018-06-11T04:21:24.306Z,22.47
2018-06-11T04:23:53.513Z,21.27
2018-06-11T04:26:21.825Z,21.10
2018-06-11T04:28:50.224Z,27.93
2018-06-11T04:31:18.615Z,22.33
2018-06-11T04:33:47.003Z,26.27
2018-06-11T04:36:15.419Z,25.17
2018-06-11T04:38:43.792Z,22.83
2018-06-11T04:41:12.242Z,22.60
2018-06-11T04:43:40.571Z,23.77
2018-06-11T04:46:09.004Z,24.97
2018-06-11T04:48:38.331Z,23.80
2018-06-11T04:51:06.697Z,25.33
2018-06-11T04:53:35.069Z,22.73
2018-06-11T04:56:03.473Z,24.77
2018-06-11T04:58:31.862Z,25.20
2018-06-11T05:01:00.296Z,21.37
2018-06-11T05:03:28.860Z,26.83
2018-06-11T05:05:57.264Z,21.90
2018-06-11T05:08:25.768Z,21.20
2018-06-11T05:10:54.114Z,21.67
2018-06-11T05:13:22.547Z,22.40
2018-06-11T05:15:51.008Z,22.87
2018-06-11T05:18:19.393Z,22.13
2018-06-11T05:20:47.720Z,24.70
2018-06-11T05:23:16.088Z,28.57
2018-06-11T05:25:44.423Z,21.63
2018-06-11T05:28:12.799Z,21.77
2018-06-11T05:30:41.173Z,22.27
2018-06-11T05:33:09.531Z,26.73
2018-06-11T05:35:38.244Z,24.43
2018-06-11T05:38:06.622Z,22.43
2018-06-11T05:40:34.985Z,26.23
2018-06-11T05:43:03.375Z,25.20
2018-06-11T05:45:31.836Z,26.93
2018-06-11T05:48:00.292Z,25.13
2018-06-11T05:50:28.591Z,23.83
2018-06-11T05:52:56.938Z,27.17
2018-06-11T05:55:25.274Z,23.93
2018-06-11T05:57:53.648Z,25.20
2018-06-11T06:00:22.044Z,25.17
2018-06-11T06:02:50.442Z,25.80
2018-06-11T06:05:18.774Z,21.93
2018-06-11T06:07:47.104Z,24.90
2018-06-11T06:10:15.536Z,21.67
2018-06-11T06:12:43.900Z,24.43
2018-06-11T06:15:12.281Z,27.57
2018-06-11T06:17:40.681Z,23.17
2018-06-11T06:20:09.051Z,24.83
2018-06-11T06:22:37.391Z,21.77
2018-06-11T06:25:05.853Z,22.57
2018-06-11T06:27:34.268Z,24.43
2018-06-11T06:30:02.619Z,24.13
2018-06-11T06:32:30.941Z,23.47
2018-06-11T06:34:59.265Z,25.70
2018-06-11T06:37:27.652Z,24.43
2018-06-11T06:39:56.024Z,24.03
2018-06-11T06:42:24.395Z,19.67
2018-06-11T06:44:52.795Z,24.10
2018-06-11T06:47:21.279Z,22.67
2018-06-11T06:49:49.704Z,20.13
2018-06-11T06:52:18.091Z,20.23
2018-06-11T06:54:46.470Z,20.23
2018-06-11T06:57:14.868Z,18.97
2018-06-11T06:59:43.208Z,18.23
2018-06-11T07:02:11.573Z,18.60
2018-06-11T07:04:39.911Z,19.80
2018-06-11T07:07:08.267Z,19.23
2018-06-11T07:09:36.718Z,16.20
2018-06-11T07:12:04.994Z,19.87
2018-06-11T07:14:33.331Z,19.33
2018-06-11T07:17:01.709Z,17.73
2018-06-11T07:19:30.207Z,18.93
2018-06-11T07:21:58.551Z,18.40
2018-06-11T07:24:26.937Z,18.17
2018-06-11T07:26:55.290Z,16.30
2018-06-11T07:29:23.607Z,16.10
2018-06-11T07:31:51.967Z,17.80
2018-06-11T07:34:20.272Z,15.50
2018-06-11T07:36:48.688Z,15.67
2018-06-11T07:39:17.027Z,16.20
2018-06-11T07:41:45.375Z,17.83
2018-06-11T07:44:13.809Z,15.80
2018-06-11T07:46:42.170Z,17.53
2018-06-11T07:49:10.564Z,16.27
2018-06-11T07:51:38.963Z,17.53
2018-06-11T07:54:07.249Z,17.47
2018-06-11T07:56:35.556Z,17.47
2018-06-11T07:59:03.935Z,14.97
2018-06-11T08:01:32.366Z,16.97
2018-06-11T08:04:00.775Z,16.83
2018-06-11T08:06:29.220Z,17.10
2018-06-11T08:08:57.619Z,18.77
2018-06-11T08:11:25.952Z,18.00
2018-06-11T08:13:54.319Z,17.03
2018-06-11T08:16:22.733Z,15.57
2018-06-11T08:18:51.191Z,17.47
2018-06-11T08:21:19.584Z,17.40
2018-06-11T08:23:47.955Z,16.40
2018-06-11T08:26:16.350Z,18.30
2018-06-11T08:28:44.689Z,17.83
2018-06-11T08:31:13.050Z,14.30
2018-06-11T08:33:41.466Z,16.17
2018-06-11T08:36:09.809Z,18.37
2018-06-11T08:38:38.164Z,17.90
2018-06-11T08:41:13.344Z,15.70
2018-06-11T08:43:41.689Z,17.77
2018-06-11T08:46:10.087Z,17.97
2018-06-11T08:48:38.429Z,17.57
2018-06-11T08:51:06.813Z,16.47
2018-06-11T08:53:35.233Z,15.70
2018-06-11T08:56:03.581Z,17.23
2018-06-11T08:58:31.987Z,15.43
2018-06-11T09:01:00.373Z,15.00
2018-06-11T09:03:28.777Z,16.73
2018-06-11T09:05:57.187Z,14.57
2018-06-11T09:08:25.516Z,15.50
2018-06-11T09:10:53.876Z,16.50
2018-06-11T09:13:22.361Z,16.10
2018-06-11T09:15:50.847Z,13.80
2018-06-11T09:18:19.316Z,16.40
2018-06-11T09:20:47.623Z,15.97
2018-06-11T09:23:15.989Z,17.37
2018-06-11T09:25:44.387Z,16.03
2018-06-11T09:28:12.770Z,14.33
2018-06-11T09:30:41.168Z,14.60
2018-06-11T09:33:09.607Z,14.63
2018-06-11T09:35:38.188Z,15.87
2018-06-11T09:38:06.826Z,15.53
2018-06-11T09:40:35.115Z,15.67
2018-06-11T09:43:03.472Z,14.30
2018-06-11T09:45:31.931Z,12.30
2018-06-11T09:48:00.299Z,15.67
2018-06-11T09:50:28.669Z,15.80
2018-06-11T09:52:56.991Z,14.77
2018-06-11T09:55:25.328Z,13.40
2018-06-11T09:57:53.667Z,13.30
2018-06-11T10:00:27.384Z,14.33
2018-06-11T10:02:55.757Z,13.57
2018-06-11T10:05:24.104Z,15.00
2018-06-11T10:07:52.521Z,14.40
2018-06-11T10:10:20.917Z,14.67
2018-06-11T10:12:49.431Z,14.13
2018-06-11T10:15:17.770Z,13.07
2018-06-11T10:17:46.147Z,16.03
2018-06-11T10:20:14.492Z,15.20
2018-06-11T10:22:42.814Z,14.13
2018-06-11T10:25:12.059Z,14.63
2018-06-11T10:27:40.411Z,12.83
2018-06-11T10:30:08.826Z,13.03
2018-06-11T10:32:37.165Z,11.23
2018-06-11T10:35:05.544Z,12.20
2018-06-11T10:37:33.896Z,12.00
2018-06-11T10:40:02.299Z,12.13
2018-06-11T10:42:30.672Z,12.40
2018-06-11T10:44:59.051Z,12.23
2018-06-11T10:47:27.455Z,10.87
2018-06-11T10:49:55.779Z,10.50
2018-06-11T10:52:24.151Z,11.37
2018-06-11T10:54:52.532Z,10.60
2018-06-11T10:57:20.890Z,10.40
2018-06-11T10:59:49.239Z,10.23
2018-06-11T11:02:17.614Z,10.30
2018-06-11T11:04:45.943Z,10.10
2018-06-11T11:07:14.275Z,10.47
2018-06-11T11:09:42.700Z,9.77
2018-06-11T11:12:11.068Z,9.43
2018-06-11T11:14:39.400Z,9.17
2018-06-11T11:17:07.747Z,8.20
2018-06-11T11:19:36.152Z,9.43
2018-06-11T11:22:04.590Z,9.50
2018-06-11T11:24:33.016Z,8.67
2018-06-11T11:27:01.417Z,9.30
2018-06-11T11:29:29.819Z,8.40
2018-06-11T11:31:58.223Z,8.13
2018-06-11T11:34:26.695Z,6.93
2018-06-11T11:36:55.159Z,7.63
2018-06-11T11:39:23.512Z,7.70
2018-06-11T11:41:51.867Z,7.53
2018-06-11T11:44:23.253Z,7.83
2018-06-11T11:46:51.555Z,8.20
2018-06-11T11:49:19.899Z,7.80
2018-06-11T11:51:48.231Z,7.87
2018-06-11T11:54:16.623Z,7.20
2018-06-11T11:56:45.041Z,6.30
2018-06-11T11:59:13.447Z,7.03
2018-06-11T12:01:41.932Z,7.63
2018-06-11T12:04:10.332Z,7.70
2018-06-11T12:06:38.951Z,8.73
2018-06-11T12:09:07.835Z,7.90
2018-06-11T12:11:36.453Z,7.40
2018-06-11T12:14:04.777Z,6.93
2018-06-11T12:16:33.230Z,6.80
2018-06-11T12:19:01.746Z,6.83
2018-06-11T12:21:30.147Z,6.97
2018-06-11T12:23:58.545Z,6.73
2018-06-11T12:26:26.977Z,7.17
2018-06-11T12:28:55.390Z,7.13
2018-06-11T12:31:23.839Z,6.27
2018-06-11T12:33:52.267Z,6.23
2018-06-11T12:36:20.633Z,6.40
2018-06-11T12:38:49.003Z,6.13
2018-06-11T12:41:25.401Z,6.60
2018-06-11T12:43:53.799Z,5.83
2018-06-11T12:46:22.209Z,6.30
2018-06-11T12:48:50.605Z,6.90
2018-06-11T12:51:18.918Z,6.70
2018-06-11T12:53:47.309Z,6.37
2018-06-11T12:56:15.667Z,6.00
2018-06-11T12:58:44.123Z,6.00
2018-06-11T13:01:12.567Z,6.10
2018-06-11T13:03:40.911Z,5.70
2018-06-11T13:06:09.243Z,6.17
2018-06-11T13:08:37.566Z,6.33
2018-06-11T13:11:05.995Z,6.23
2018-06-11T13:13:34.352Z,6.43
2018-06-11T13:16:02.780Z,6.63
2018-06-11T13:18:31.137Z,7.00
2018-06-11T13:20:59.535Z,6.53
2018-06-11T13:23:27.969Z,6.30
2018-06-11T13:25:56.364Z,6.00
2018-06-11T13:28:24.812Z,6.47
2018-06-11T13:30:53.146Z,7.80
2018-06-11T13:33:21.537Z,7.00
2018-06-11T13:35:49.979Z,6.73
2018-06-11T13:38:18.374Z,5.37
2018-06-11T13:40:46.765Z,5.33
2018-06-11T13:43:15.059Z,5.93
2018-06-11T13:45:43.494Z,6.00
2018-06-11T13:48:12.035Z,4.97
2018-06-11T13:50:40.455Z,6.20
2018-06-11T13:53:08.960Z,6.90
2018-06-11T13:55:37.371Z,7.33
2018-06-11T13:58:05.780Z,5.70
2018-06-11T14:00:34.317Z,7.20
2018-06-11T14:03:02.699Z,6.63
2018-06-11T14:05:31.183Z,6.37
2018-06-11T14:07:59.667Z,6.23
2018-06-11T14:10:28.136Z,7.13
2018-06-11T14:12:56.520Z,6.87
2018-06-11T14:15:25.702Z,6.40
2018-06-11T14:17:54.151Z,5.83
2018-06-11T14:20:22.577Z,6.33
2018-06-11T14:22:50.919Z,5.50
2018-06-11T14:25:19.255Z,6.23
2018-06-11T14:27:47.603Z,5.57
2018-06-11T14:30:16.025Z,5.40
2018-06-11T14:32:44.463Z,5.83
2018-06-11T14:35:12.830Z,5.13
2018-06-11T14:37:41.278Z,5.63
2018-06-11T14:40:09.954Z,4.97
2018-06-11T14:42:38.291Z,5.90
2018-06-11T14:45:06.725Z,5.00
2018-06-11T14:47:35.273Z,4.77
2018-06-11T14:50:03.671Z,5.33
2018-06-11T14:52:32.046Z,5.00
2018-06-11T14:55:00.479Z,3.90
2018-06-11T14:57:28.912Z,4.77
2018-06-11T14:59:57.348Z,5.00
2018-06-11T15:02:25.688Z,4.40
2018-06-11T15:04:54.098Z,5.43
2018-06-11T15:07:22.473Z,4.67
2018-06-11T15:09:50.887Z,4.33
2018-06-11T15:12:19.295Z,4.03
2018-06-11T15:14:47.713Z,4.83
2018-06-11T15:17:16.094Z,4.20
2018-06-11T15:19:44.565Z,4.60
2018-06-11T15:22:12.907Z,4.90
2018-06-11T15:24:41.317Z,4.73
2018-06-11T15:27:09.731Z,4.70
2018-06-11T15:29:38.149Z,4.10
2018-06-11T15:32:06.527Z,4.20
2018-06-11T15:34:35.271Z,4.77
2018-06-11T15:37:03.869Z,4.67
2018-06-11T15:39:32.315Z,4.30
2018-06-11T15:42:00.719Z,4.70
2018-06-11T15:44:29.136Z,5.43
2018-06-11T15:46:57.483Z,4.53
2018-06-11T15:49:25.815Z,4.70
2018-06-11T15:51:54.110Z,4.27
2018-06-11T15:54:22.480Z,4.13
2018-06-11T15:56:50.938Z,4.33
2018-06-11T15:59:19.226Z,4.33
2018-06-11T16:01:47.750Z,3.77
2018-06-11T16:04:16.088Z,4.57
2018-06-11T16:06:44.571Z,3.83
2018-06-11T16:09:13.004Z,3.90
2018-06-11T16:11:41.339Z,3.93
2018-06-11T16:14:09.747Z,3.90
2018-06-11T16:16:38.058Z,3.67
2018-06-11T16:19:06.467Z,3.33
2018-06-11T16:21:34.845Z,4.50
2018-06-11T16:24:03.296Z,4.33
2018-06-11T16:26:31.651Z,3.63
2018-06-11T16:29:00.247Z,3.80
2018-06-11T16:31:28.573Z,3.60
2018-06-11T16:33:57.027Z,3.27
2018-06-11T16:36:25.427Z,3.70
2018-06-11T16:38:53.804Z,3.40
2018-06-11T16:41:22.227Z,3.80
2018-06-11T16:43:51.027Z,3.33
2018-06-11T16:46:19.368Z,3.83
2018-06-11T16:48:47.779Z,3.23
2018-06-11T16:51:16.235Z,3.70
2018-06-11T16:53:44.660Z,3.50
2018-06-11T16:56:13.216Z,3.43
2018-06-11T16:58:41.564Z,4.00
2018-06-11T17:01:09.955Z,3.63
2018-06-11T17:03:38.337Z,3.57
2018-06-11T17:06:06.790Z,3.90
2018-06-11T17:08:35.290Z,4.23
2018-06-11T17:11:03.661Z,3.60
2018-06-11T17:13:32.003Z,3.57
2018-06-11T17:16:00.364Z,3.50
2018-06-11T17:18:28.689Z,3.40
2018-06-11T17:20:57.131Z,3.53
2018-06-11T17:23:25.531Z,3.33
2018-06-11T17:25:54.309Z,3.70
2018-06-11T17:28:22.663Z,4.00
2018-06-11T17:30:51.017Z,4.10
2018-06-11T17:33:19.322Z,3.90
2018-06-11T17:35:47.706Z,4.00
2018-06-11T17:38:17.104Z,4.43
2018-06-11T17:40:45.523Z,4.13
2018-06-11T17:43:13.875Z,4.20
2018-06-11T17:45:42.182Z,3.63
2018-06-11T17:48:10.522Z,3.60
2018-06-11T17:50:39.824Z,3.30
2018-06-11T17:53:08.411Z,3.50
2018-06-11T17:55:36.820Z,4.20
2018-06-11T17:58:05.240Z,4.17
2018-06-11T18:00:33.596Z,4.53
2018-06-11T18:03:01.917Z,3.93
2018-06-11T18:05:30.306Z,4.13
2018-06-11T18:07:58.676Z,3.80
2018-06-11T18:10:26.984Z,4.43
2018-06-11T18:12:55.272Z,4.03
2018-06-11T18:15:23.604Z,4.20
2018-06-11T18:17:51.947Z,4.83
2018-06-11T18:20:20.284Z,4.13
2018-06-11T18:22:48.657Z,3.80
2018-06-11T18:25:16.987Z,3.80
2018-06-11T18:27:45.375Z,3.50
2018-06-11T18:30:13.700Z,3.87
2018-06-11T18:32:42.039Z,3.73
2018-06-11T18:35:10.456Z,4.13
2018-06-11T18:37:38.888Z,3.47
2018-06-11T18:40:07.315Z,4.90
2018-06-11T18:42:35.647Z,4.00
2018-06-11T18:45:04.040Z,4.23
2018-06-11T18:47:32.347Z,4.00
2018-06-11T18:50:00.716Z,4.47
2018-06-11T18:52:29.052Z,3.77
2018-06-11T18:54:57.388Z,4.00
2018-06-11T18:57:25.752Z,4.37
2018-06-11T18:59:54.075Z,4.50
2018-06-11T19:02:22.387Z,3.53
2018-06-11T19:04:50.787Z,3.77
2018-06-11T19:07:19.097Z,4.17
2018-06-11T19:09:47.424Z,3.93
2018-06-11T19:12:15.763Z,4.30
2018-06-11T19:14:44.119Z,4.27
2018-06-11T19:17:12.524Z,4.10
2018-06-11T19:19:40.905Z,4.27
2018-06-11T19:22:09.235Z,4.40
2018-06-11T19:24:37.621Z,4.80
2018-06-11T19:27:05.948Z,4.47
2018-06-11T19:29:34.297Z,3.77
2018-06-11T19:32:02.666Z,4.43
2018-06-11T19:34:30.992Z,4.30
2018-06-11T19:36:59.378Z,4.67
2018-06-11T19:39:27.713Z,4.23
2018-06-11T19:41:56.200Z,4.60
2018-06-11T19:44:24.548Z,4.70
2018-06-11T19:46:52.914Z,4.33
2018-06-11T19:49:21.623Z,4.40
2018-06-11T19:51:51.263Z,4.10
2018-06-11T19:54:20.366Z,4.70
2018-06-11T19:56:48.671Z,4.20
2018-06-11T19:59:17.028Z,4.93
2018-06-11T20:01:45.445Z,4.60
2018-06-11T20:04:13.796Z,4.63
2018-06-11T20:06:42.160Z,4.00
2018-06-11T20:09:10.479Z,5.07
2018-06-11T20:11:38.820Z,4.80
2018-06-11T20:14:07.185Z,5.37
2018-06-11T20:16:35.611Z,4.37
2018-06-11T20:19:03.999Z,4.47
2018-06-11T20:21:32.328Z,4.50
2018-06-11T20:24:00.660Z,4.87
2018-06-11T20:26:28.951Z,6.53
2018-06-11T20:28:57.392Z,4.87
2018-06-11T20:31:25.770Z,5.57
2018-06-11T20:33:54.110Z,5.27
2018-06-11T20:36:22.459Z,5.47
2018-06-11T20:38:50.772Z,5.07
2018-06-11T20:41:19.105Z,5.70
2018-06-11T20:43:47.493Z,4.90
2018-06-11T20:46:15.843Z,4.73
2018-06-11T20:48:44.163Z,5.00
2018-06-11T20:51:12.492Z,5.37
2018-06-11T20:53:40.883Z,4.47
2018-06-11T20:56:09.271Z,5.10
2018-06-11T20:58:37.603Z,5.30
2018-06-11T21:01:06.019Z,5.23
2018-06-11T21:03:34.379Z,4.17
2018-06-11T21:06:02.761Z,4.67
2018-06-11T21:08:31.077Z,5.23
2018-06-11T21:10:59.427Z,5.37
2018-06-11T21:13:27.790Z,4.90
2018-06-11T21:15:56.103Z,5.03
2018-06-11T21:18:24.424Z,5.23
2018-06-11T21:20:52.743Z,4.87
2018-06-11T21:23:21.154Z,5.70
2018-06-11T21:25:49.531Z,5.73
2018-06-11T21:28:17.915Z,4.60
2018-06-11T21:30:46.242Z,5.50
2018-06-11T21:33:14.548Z,6.37
2018-06-11T21:35:42.859Z,6.00
2018-06-11T21:38:11.282Z,6.60
2018-06-11T21:40:39.657Z,6.23
2018-06-11T21:43:07.977Z,5.50
2018-06-11T21:45:36.313Z,6.37
2018-06-11T21:48:04.675Z,5.20
2018-06-11T21:50:33.027Z,5.43
2018-06-11T21:53:01.379Z,5.00
2018-06-11T21:55:29.659Z,6.17
2018-06-11T21:57:59.362Z,5.97
2018-06-11T22:00:27.735Z,5.43
2018-06-11T22:02:56.047Z,6.07
2018-06-11T22:05:24.392Z,5.30
2018-06-11T22:07:52.756Z,5.73
2018-06-11T22:10:21.088Z,5.40
2018-06-11T22:12:49.459Z,5.70
2018-06-11T22:15:17.799Z,5.77
2018-06-11T22:17:46.071Z,5.43
2018-06-11T22:20:14.415Z,5.60
2018-06-11T22:22:42.795Z,5.87
2018-06-11T22:25:11.149Z,6.17
2018-06-11T22:27:39.445Z,5.47
2018-06-11T22:30:07.752Z,5.93
2018-06-11T22:32:36.075Z,5.87
2018-06-11T22:35:04.477Z,6.47
2018-06-11T22:37:32.849Z,6.23
2018-06-11T22:40:01.175Z,7.17
2018-06-11T22:42:29.487Z,6.87
2018-06-11T22:44:57.818Z,6.70
2018-06-11T22:47:26.165Z,6.90
2018-06-11T22:49:54.517Z,6.60
2018-06-11T22:52:22.878Z,7.13
2018-06-11T22:54:51.220Z,6.83
2018-06-11T22:57:19.518Z,7.50
2018-06-11T22:59:47.894Z,7.63
2018-06-11T23:02:16.223Z,7.77
2018-06-11T23:04:44.546Z,7.80
2018-06-11T23:07:12.890Z,7.00
2018-06-11T23:09:41.219Z,6.87
2018-06-11T23:12:09.571Z,7.83
2018-06-11T23:14:37.923Z,7.13
2018-06-11T23:17:06.286Z,6.77
2018-06-11T23:19:34.618Z,7.13
2018-06-11T23:22:02.935Z,5.77
2018-06-11T23:24:31.259Z,6.50
2018-06-11T23:26:59.648Z,6.73
2018-06-11T23:29:28.033Z,6.83
2018-06-11T23:31:56.391Z,6.00
2018-06-11T23:34:24.757Z,6.23
2018-06-11T23:36:53.047Z,6.63
2018-06-11T23:39:21.367Z,5.77
2018-06-11T23:41:49.727Z,6.00
2018-06-11T23:44:18.063Z,5.87
2018-06-11T23:46:46.351Z,4.73
2018-06-11T23:49:14.663Z,5.17
2018-06-11T23:51:43.004Z,5.03
2018-06-11T23:54:11.850Z,5.80
2018-06-11T23:56:40.175Z,5.30
2018-06-11T23:59:08.515Z,5.83
